createdAt,value
2018-08-12T00:00:48.134Z,0.90
2018-08-12T00:01:48.133Z,1.20
2018-08-12T00:02:48.135Z,1.00
2018-08-12T00:03:48.129Z,1.30
2018-08-12T00:04:48.129Z,1.00
2018-08-12T00:05:48.126Z,1.10
2018-08-12T00:06:48.125Z,1.00
2018-08-12T00:07:48.124Z,1.50
2018-08-12T00:08:48.124Z,1.10
2018-08-12T00:09:48.121Z,1.10
2018-08-12T00:10:48.120Z,1.00
2018-08-12T00:11:48.119Z,0.90
2018-08-12T00:12:48.117Z,0.90
2018-08-12T00:13:48.116Z,0.90
2018-08-12T00:14:48.114Z,0.70
2018-08-12T00:15:48.114Z,1.20
2018-08-12T00:16:48.112Z,0.90
2018-08-12T00:17:48.110Z,0.80
2018-08-12T00:18:48.108Z,0.80
2018-08-12T00:19:48.107Z,1.20
2018-08-12T00:20:48.107Z,1.10
2018-08-12T00:21:48.104Z,0.90
2018-08-12T00:22:48.104Z,0.90
2018-08-12T00:23:48.102Z,1.10
2018-08-12T00:24:48.101Z,0.80
2018-08-12T00:25:48.098Z,0.70
2018-08-12T00:26:48.100Z,0.70
2018-08-12T00:27:48.095Z,1.00
2018-08-12T00:28:48.094Z,1.00
2018-08-12T00:29:48.096Z,0.90
2018-08-12T00:30:48.092Z,0.90
2018-08-12T00:31:48.091Z,0.70
2018-08-12T00:32:48.091Z,0.80
2018-08-12T00:33:48.088Z,0.80
2018-08-12T00:34:48.086Z,0.90
2018-08-12T00:35:48.083Z,1.10
2018-08-12T00:36:48.084Z,1.20
2018-08-12T00:37:48.079Z,0.90
2018-08-12T00:38:48.081Z,1.10
2018-08-12T00:39:48.078Z,1.10
2018-08-12T00:40:48.077Z,0.90
2018-08-12T00:41:48.074Z,1.10
2018-08-12T00:42:48.072Z,1.00
2018-08-12T00:43:48.072Z,0.80
2018-08-12T00:44:48.074Z,1.10
2018-08-12T00:45:48.069Z,1.00
2018-08-12T00:46:48.067Z,1.00
2018-08-12T00:47:48.066Z,1.10
2018-08-12T00:48:48.072Z,0.90
2018-08-12T00:49:48.061Z,0.80
2018-08-12T00:50:48.059Z,0.80
2018-08-12T00:51:48.059Z,1.00
2018-08-12T00:52:48.056Z,0.80
2018-08-12T00:53:48.055Z,1.10
2018-08-12T00:54:48.053Z,1.50
2018-08-12T00:55:48.056Z,0.90
2018-08-12T00:56:48.051Z,0.90
2018-08-12T00:57:48.049Z,0.90
2018-08-12T00:58:48.047Z,0.80
2018-08-12T00:59:48.045Z,0.90
2018-08-12T01:00:48.043Z,0.80
2018-08-12T01:01:48.040Z,0.90
2018-08-12T01:02:48.039Z,0.90
2018-08-12T01:03:48.037Z,1.20
2018-08-12T01:04:48.036Z,0.80
2018-08-12T01:05:48.034Z,1.00
2018-08-12T01:06:48.032Z,1.20
2018-08-12T01:07:48.031Z,0.70
2018-08-12T01:08:48.028Z,1.10
2018-08-12T01:09:48.025Z,0.90
2018-08-12T01:10:48.026Z,1.20
2018-08-12T01:11:48.022Z,1.10
2018-08-12T01:12:48.020Z,0.70
2018-08-12T01:13:48.018Z,1.10
2018-08-12T01:14:48.017Z,0.90
2018-08-12T01:15:48.014Z,1.30
2018-08-12T01:16:48.012Z,0.80
2018-08-12T01:17:48.009Z,1.20
2018-08-12T01:18:48.009Z,1.00
2018-08-12T01:19:48.006Z,1.00
2018-08-12T01:20:48.003Z,1.00
2018-08-12T01:21:48.001Z,0.90
2018-08-12T01:22:48.000Z,1.10
2018-08-12T01:23:48.000Z,0.80
2018-08-12T01:24:47.996Z,1.00
2018-08-12T01:25:47.992Z,1.10
2018-08-12T01:26:47.994Z,0.90
2018-08-12T01:27:47.989Z,1.00
2018-08-12T01:28:47.986Z,0.90
2018-08-12T01:29:47.985Z,0.90
2018-08-12T01:30:47.983Z,1.00
2018-08-12T01:31:47.979Z,0.70
2018-08-12T01:32:47.979Z,0.90
2018-08-12T01:33:47.976Z,1.10
2018-08-12T01:34:47.973Z,0.90
2018-08-12T01:35:47.984Z,1.30
2018-08-12T01:36:47.970Z,1.00
2018-08-12T01:37:47.967Z,1.10
2018-08-12T01:38:47.965Z,1.10
2018-08-12T01:39:47.962Z,0.80
2018-08-12T01:40:47.961Z,0.80
2018-08-12T01:41:47.957Z,1.20
2018-08-12T01:42:47.961Z,1.20
2018-08-12T01:43:47.956Z,0.90
2018-08-12T01:44:47.952Z,1.00
2018-08-12T01:45:47.951Z,1.00
2018-08-12T01:46:47.945Z,1.20
2018-08-12T01:47:47.944Z,1.60
2018-08-12T01:48:47.942Z,1.30
2018-08-12T01:49:47.939Z,1.10
2018-08-12T01:50:47.935Z,1.30
2018-08-12T01:51:47.934Z,1.00
2018-08-12T01:52:47.932Z,1.00
2018-08-12T01:53:47.928Z,1.00
2018-08-12T01:54:47.926Z,1.30
2018-08-12T01:55:47.924Z,1.20
2018-08-12T01:56:47.923Z,1.40
2018-08-12T01:57:47.918Z,1.70
2018-08-12T01:58:47.925Z,1.20
2018-08-12T01:59:47.918Z,1.20
2018-08-12T02:00:47.913Z,1.20
2018-08-12T02:01:47.909Z,1.60
2018-08-12T02:02:47.906Z,1.50
2018-08-12T02:03:47.904Z,1.20
2018-08-12T02:04:47.902Z,1.40
2018-08-12T02:05:47.900Z,1.10
2018-08-12T02:06:47.897Z,1.50
2018-08-12T02:07:47.894Z,1.30
2018-08-12T02:08:47.893Z,1.50
2018-08-12T02:09:47.890Z,1.10
2018-08-12T02:10:47.886Z,1.20
2018-08-12T02:11:47.884Z,1.40
2018-08-12T02:12:47.883Z,1.40
2018-08-12T02:13:47.879Z,1.70
2018-08-12T02:14:47.878Z,1.50
2018-08-12T02:15:47.874Z,1.60
2018-08-12T02:16:47.873Z,1.40
2018-08-12T02:17:47.868Z,1.50
2018-08-12T02:18:47.867Z,1.50
2018-08-12T02:19:47.866Z,1.30
2018-08-12T02:20:47.862Z,1.50
2018-08-12T02:21:47.859Z,1.20
2018-08-12T02:22:47.857Z,1.70
2018-08-12T02:23:47.855Z,1.50
2018-08-12T02:24:47.852Z,1.60
2018-08-12T02:25:47.849Z,1.70
2018-08-12T02:26:47.847Z,1.50
2018-08-12T02:27:47.843Z,1.80
2018-08-12T02:28:47.841Z,1.40
2018-08-12T02:29:47.839Z,1.30
2018-08-12T02:30:47.836Z,1.70
2018-08-12T02:31:47.833Z,1.50
2018-08-12T02:32:47.831Z,1.70
2018-08-12T02:33:47.829Z,1.80
2018-08-12T02:34:47.826Z,1.90
2018-08-12T02:35:47.822Z,2.20
2018-08-12T02:36:47.820Z,1.50
2018-08-12T02:37:47.818Z,2.20
2018-08-12T02:38:47.816Z,1.90
2018-08-12T02:39:47.812Z,2.10
2018-08-12T02:40:47.811Z,1.80
2018-08-12T02:41:47.811Z,2.10
2018-08-12T02:42:47.804Z,2.00
2018-08-12T02:43:47.803Z,1.60
2018-08-12T02:44:47.801Z,1.90
2018-08-12T02:45:47.796Z,1.90
2018-08-12T02:46:47.794Z,1.80
2018-08-12T02:47:47.791Z,2.20
2018-08-12T02:48:47.788Z,2.00
2018-08-12T02:49:47.792Z,2.00
2018-08-12T02:50:47.783Z,2.30
2018-08-12T02:51:47.780Z,2.10
2018-08-12T02:52:47.778Z,1.80
2018-08-12T02:53:47.774Z,1.70
2018-08-12T02:54:47.773Z,1.90
2018-08-12T02:55:47.771Z,1.80
2018-08-12T02:56:47.768Z,1.80
2018-08-12T02:57:47.775Z,1.90
2018-08-12T02:58:47.761Z,2.30
2018-08-12T02:59:47.759Z,1.70
2018-08-12T03:00:47.757Z,2.00
2018-08-12T03:01:47.760Z,1.90
2018-08-12T03:02:47.751Z,2.00
2018-08-12T03:03:47.753Z,2.50
2018-08-12T03:04:47.745Z,1.80
2018-08-12T03:05:47.740Z,2.10
2018-08-12T03:06:47.738Z,2.30
2018-08-12T03:07:47.737Z,1.90
2018-08-12T03:08:47.734Z,1.80
2018-08-12T03:09:47.730Z,2.10
2018-08-12T03:10:47.727Z,2.00
2018-08-12T03:11:47.726Z,2.00
2018-08-12T03:12:47.729Z,2.30
2018-08-12T03:13:47.718Z,2.60
2018-08-12T03:14:47.715Z,2.10
2018-08-12T03:15:47.713Z,2.10
2018-08-12T03:16:47.714Z,2.40
2018-08-12T03:17:47.707Z,1.70
2018-08-12T03:18:47.707Z,2.40
2018-08-12T03:19:47.701Z,2.00
2018-08-12T03:20:47.699Z,2.20
2018-08-12T03:21:47.699Z,2.30
2018-08-12T03:22:47.694Z,2.40
2018-08-12T03:23:47.691Z,2.80
2018-08-12T03:24:47.686Z,3.10
2018-08-12T03:25:47.687Z,2.50
2018-08-12T03:26:47.689Z,3.10
2018-08-12T03:27:47.679Z,2.20
2018-08-12T03:28:47.676Z,2.60
2018-08-12T03:29:47.671Z,2.50
2018-08-12T03:30:47.670Z,2.20
2018-08-12T03:31:47.668Z,2.40
2018-08-12T03:32:47.663Z,1.90
2018-08-12T03:33:47.660Z,2.60
2018-08-12T03:34:47.658Z,2.60
2018-08-12T03:35:47.655Z,2.20
2018-08-12T03:36:47.653Z,2.00
2018-08-12T03:37:47.648Z,2.40
2018-08-12T03:38:47.648Z,2.10
2018-08-12T03:39:47.647Z,2.60
2018-08-12T03:40:47.640Z,2.40
2018-08-12T03:41:47.642Z,2.20
2018-08-12T03:42:47.635Z,2.60
2018-08-12T03:43:47.631Z,2.70
2018-08-12T03:44:47.628Z,2.10
2018-08-12T03:45:47.624Z,2.40
2018-08-12T03:46:47.621Z,1.90
2018-08-12T03:47:47.619Z,2.00
2018-08-12T03:48:47.638Z,2.10
2018-08-12T03:49:47.613Z,2.10
2018-08-12T03:50:47.609Z,2.50
2018-08-12T03:51:47.607Z,2.20
2018-08-12T03:52:47.605Z,2.70
2018-08-12T03:53:47.601Z,2.40
2018-08-12T03:54:47.597Z,2.50
2018-08-12T03:55:47.595Z,2.40
2018-08-12T03:56:47.593Z,2.20
2018-08-12T03:57:47.590Z,2.00
2018-08-12T03:58:47.590Z,2.50
2018-08-12T03:59:47.587Z,2.30
2018-08-12T04:00:47.581Z,2.40
2018-08-12T04:01:47.577Z,2.20
2018-08-12T04:02:47.575Z,2.10
2018-08-12T04:03:47.572Z,2.50
2018-08-12T04:04:47.570Z,2.40
2018-08-12T04:05:47.565Z,2.30
2018-08-12T04:06:47.563Z,2.30
2018-08-12T04:07:47.560Z,2.60
2018-08-12T04:08:47.557Z,2.50
2018-08-12T04:09:47.553Z,2.60
2018-08-12T04:10:47.551Z,2.40
2018-08-12T04:11:47.548Z,2.20
2018-08-12T04:12:47.546Z,2.60
2018-08-12T04:13:47.541Z,2.60
2018-08-12T04:14:47.538Z,2.40
2018-08-12T04:15:47.537Z,2.00
2018-08-12T04:16:47.534Z,2.40
2018-08-12T04:17:47.535Z,2.30
2018-08-12T04:18:47.527Z,2.20
2018-08-12T04:19:47.524Z,2.40
2018-08-12T04:20:47.523Z,2.30
2018-08-12T04:21:47.518Z,2.50
2018-08-12T04:22:47.517Z,2.50
2018-08-12T04:23:47.514Z,2.60
2018-08-12T04:24:47.511Z,2.60
2018-08-12T04:25:47.506Z,3.30
2018-08-12T04:26:47.503Z,2.60
2018-08-12T04:27:47.501Z,2.30
2018-08-12T04:28:47.500Z,2.30
2018-08-12T04:29:47.496Z,2.80
2018-08-12T04:30:47.493Z,2.10
2018-08-12T04:31:47.493Z,3.00
2018-08-12T04:32:47.488Z,2.30
2018-08-12T04:33:47.484Z,2.80
2018-08-12T04:34:47.482Z,2.50
2018-08-12T04:35:47.478Z,2.90
2018-08-12T04:36:47.477Z,2.40
2018-08-12T04:37:47.472Z,2.70
2018-08-12T04:38:47.469Z,2.60
2018-08-12T04:39:47.469Z,2.60
2018-08-12T04:40:47.463Z,2.90
2018-08-12T04:41:47.460Z,2.80
2018-08-12T04:42:47.459Z,2.80
2018-08-12T04:43:47.456Z,2.90
2018-08-12T04:44:47.453Z,2.90
2018-08-12T04:45:47.448Z,2.80
2018-08-12T04:46:47.446Z,2.30
2018-08-12T04:47:47.445Z,3.00
2018-08-12T04:48:47.440Z,2.90
2018-08-12T04:49:47.438Z,3.20
2018-08-12T04:50:47.435Z,2.90
2018-08-12T04:51:47.437Z,2.90
2018-08-12T04:52:47.430Z,2.90
2018-08-12T04:53:47.426Z,3.30
2018-08-12T04:54:47.425Z,3.00
2018-08-12T04:55:47.423Z,3.00
2018-08-12T04:56:47.419Z,2.80
2018-08-12T04:57:47.416Z,3.10
2018-08-12T04:58:47.413Z,3.60
2018-08-12T04:59:47.412Z,2.70
2018-08-12T05:00:47.410Z,2.90
2018-08-12T05:01:47.406Z,2.70
2018-08-12T05:02:47.404Z,3.10
2018-08-12T05:03:47.402Z,3.20
2018-08-12T05:04:47.400Z,3.20
2018-08-12T05:05:47.396Z,3.30
2018-08-12T05:06:47.395Z,2.90
2018-08-12T05:07:47.393Z,3.10
2018-08-12T05:08:47.391Z,3.00
2018-08-12T05:09:47.388Z,3.50
2018-08-12T05:10:47.384Z,2.80
2018-08-12T05:11:47.383Z,3.20
2018-08-12T05:12:47.381Z,3.00
2018-08-12T05:13:47.377Z,3.20
2018-08-12T05:14:47.376Z,2.80
2018-08-12T05:15:47.375Z,2.30
2018-08-12T05:16:47.372Z,2.90
2018-08-12T05:17:47.370Z,2.40
2018-08-12T05:18:47.368Z,3.50
2018-08-12T05:19:47.372Z,2.60
2018-08-12T05:20:47.363Z,2.90
2018-08-12T05:21:47.362Z,3.70
2018-08-12T05:22:47.360Z,3.00
2018-08-12T05:23:47.358Z,3.20
2018-08-12T05:24:47.356Z,3.20
2018-08-12T05:25:47.355Z,3.00
2018-08-12T05:26:47.352Z,4.00
2018-08-12T05:27:47.350Z,3.10
2018-08-12T05:28:47.350Z,3.20
2018-08-12T05:29:47.347Z,3.60
2018-08-12T05:30:47.346Z,3.60
2018-08-12T05:31:47.345Z,3.50
2018-08-12T05:32:47.343Z,3.90
2018-08-12T05:33:47.340Z,3.80
2018-08-12T05:34:47.338Z,3.20
2018-08-12T05:35:47.339Z,3.70
2018-08-12T05:36:47.337Z,3.90
2018-08-12T05:37:47.334Z,3.40
2018-08-12T05:38:47.334Z,3.60
2018-08-12T05:39:47.335Z,3.60
2018-08-12T05:40:47.331Z,3.80
2018-08-12T05:41:47.329Z,4.00
2018-08-12T05:42:47.329Z,3.30
2018-08-12T05:43:47.327Z,3.40
2018-08-12T05:44:47.327Z,3.40
2018-08-12T05:45:47.325Z,3.70
2018-08-12T05:46:47.323Z,3.80
2018-08-12T05:47:47.324Z,3.10
2018-08-12T05:48:47.322Z,3.10
2018-08-12T05:49:47.319Z,3.80
2018-08-12T05:50:47.319Z,3.80
2018-08-12T05:51:47.323Z,3.60
2018-08-12T05:52:47.317Z,4.10
2018-08-12T05:53:47.315Z,3.70
2018-08-12T05:54:47.319Z,3.60
2018-08-12T05:55:47.314Z,3.90
2018-08-12T05:56:47.314Z,4.20
2018-08-12T05:57:47.313Z,3.20
2018-08-12T05:58:47.311Z,4.10
2018-08-12T05:59:47.311Z,4.60
2018-08-12T06:00:47.312Z,4.00
2018-08-12T06:01:47.311Z,4.20
2018-08-12T06:02:47.362Z,4.10
2018-08-12T06:03:47.308Z,4.00
2018-08-12T06:04:47.306Z,4.10
2018-08-12T06:05:47.307Z,4.10
2018-08-12T06:06:47.305Z,3.50
2018-08-12T06:07:47.305Z,3.50
2018-08-12T06:08:47.345Z,3.50
2018-08-12T06:09:47.303Z,3.80
2018-08-12T06:10:47.305Z,3.60
2018-08-12T06:11:47.305Z,4.50
2018-08-12T06:12:47.301Z,3.50
2018-08-12T06:13:47.300Z,3.90
2018-08-12T06:14:47.301Z,3.80
2018-08-12T06:15:47.299Z,4.30
2018-08-12T06:16:47.299Z,3.50
2018-08-12T06:17:47.300Z,3.80
2018-08-12T06:18:47.298Z,3.60
2018-08-12T06:19:47.296Z,3.50
2018-08-12T06:20:47.298Z,3.50
2018-08-12T06:21:47.295Z,3.40
2018-08-12T06:22:47.296Z,3.30
2018-08-12T06:23:47.298Z,3.10
2018-08-12T06:24:47.295Z,3.20
2018-08-12T06:25:47.313Z,3.40
2018-08-12T06:26:47.295Z,2.80
2018-08-12T06:27:47.294Z,3.10
2018-08-12T06:28:47.295Z,3.10
2018-08-12T06:29:47.294Z,3.40
2018-08-12T06:30:47.294Z,3.00
2018-08-12T06:31:47.294Z,3.00
2018-08-12T06:32:47.294Z,3.60
2018-08-12T06:33:47.293Z,2.80
2018-08-12T06:34:47.293Z,3.10
2018-08-12T06:35:47.292Z,3.40
2018-08-12T06:36:47.293Z,3.20
2018-08-12T06:37:47.291Z,3.10
2018-08-12T06:38:47.293Z,2.80
2018-08-12T06:39:47.301Z,3.60
2018-08-12T06:40:47.292Z,2.80
2018-08-12T06:41:47.292Z,3.40
2018-08-12T06:42:47.291Z,2.90
2018-08-12T06:43:47.293Z,3.40
2018-08-12T06:44:47.291Z,3.40
2018-08-12T06:45:47.291Z,3.00
2018-08-12T06:46:47.291Z,3.80
2018-08-12T06:47:47.295Z,3.30
2018-08-12T06:48:47.292Z,3.40
2018-08-12T06:49:47.291Z,3.70
2018-08-12T06:50:47.291Z,3.20
2018-08-12T06:51:47.362Z,2.90
2018-08-12T06:52:47.291Z,3.70
2018-08-12T06:53:47.292Z,3.10
2018-08-12T06:54:47.291Z,3.10
2018-08-12T06:55:47.291Z,3.40
2018-08-12T06:56:47.296Z,3.30
2018-08-12T06:57:47.291Z,3.40
2018-08-12T06:58:47.292Z,3.30
2018-08-12T06:59:47.291Z,2.90
2018-08-12T07:00:47.292Z,3.90
2018-08-12T07:01:47.293Z,3.50
2018-08-12T07:02:47.293Z,2.50
2018-08-12T07:03:47.292Z,3.00
2018-08-12T07:04:47.293Z,3.10
2018-08-12T07:05:47.293Z,2.90
2018-08-12T07:06:47.295Z,2.90
2018-08-12T07:07:47.294Z,3.20
2018-08-12T07:08:47.297Z,2.70
2018-08-12T07:09:47.296Z,2.80
2018-08-12T07:10:47.298Z,3.30
2018-08-12T07:11:47.298Z,2.60
2018-08-12T07:12:47.300Z,2.80
2018-08-12T07:13:47.300Z,2.30
2018-08-12T07:14:47.302Z,2.50
2018-08-12T07:15:47.302Z,2.60
2018-08-12T07:16:47.305Z,2.20
2018-08-12T07:17:47.305Z,2.50
2018-08-12T07:18:47.307Z,2.60
2018-08-12T07:19:47.310Z,2.10
2018-08-12T07:20:47.311Z,2.40
2018-08-12T07:21:47.314Z,2.60
2018-08-12T07:22:47.315Z,2.80
2018-08-12T07:23:47.320Z,2.60
2018-08-12T07:24:47.338Z,2.20
2018-08-12T07:25:47.320Z,2.60
2018-08-12T07:26:47.324Z,2.40
2018-08-12T07:27:47.327Z,2.10
2018-08-12T07:28:47.329Z,2.20
2018-08-12T07:29:47.331Z,2.80
2018-08-12T07:30:47.334Z,1.80
2018-08-12T07:31:47.336Z,2.20
2018-08-12T07:32:47.343Z,2.00
2018-08-12T07:33:47.342Z,1.90
2018-08-12T07:34:47.344Z,1.90
2018-08-12T07:35:47.347Z,1.60
2018-08-12T07:36:47.351Z,1.80
2018-08-12T07:37:47.359Z,1.60
2018-08-12T07:38:47.381Z,1.30
2018-08-12T07:39:47.361Z,1.30
2018-08-12T07:40:47.364Z,1.60
2018-08-12T07:41:47.367Z,1.30
2018-08-12T07:42:47.370Z,1.40
2018-08-12T07:43:47.374Z,1.20
2018-08-12T07:44:47.379Z,1.70
2018-08-12T07:45:47.381Z,1.20
2018-08-12T07:46:47.386Z,1.00
2018-08-12T07:47:47.392Z,1.30
2018-08-12T07:48:47.446Z,1.40
2018-08-12T07:49:47.396Z,1.30
2018-08-12T07:50:47.401Z,1.60
2018-08-12T07:51:47.405Z,1.10
2018-08-12T07:52:47.410Z,1.40
2018-08-12T07:53:47.412Z,1.30
2018-08-12T07:54:47.418Z,1.10
2018-08-12T07:55:47.496Z,1.30
2018-08-12T07:56:47.427Z,1.30
2018-08-12T07:57:47.429Z,1.40
2018-08-12T07:58:47.435Z,1.20
2018-08-12T07:59:47.439Z,1.30
2018-08-12T08:00:47.443Z,1.00
2018-08-12T08:01:47.447Z,1.00
2018-08-12T08:02:47.453Z,1.00
2018-08-12T08:03:47.457Z,1.00
2018-08-12T08:04:47.462Z,1.10
2018-08-12T08:05:47.468Z,1.00
2018-08-12T08:06:47.473Z,1.40
2018-08-12T08:07:47.477Z,1.00
2018-08-12T08:08:47.481Z,1.10
2018-08-12T08:09:47.485Z,1.00
2018-08-12T08:10:47.492Z,1.10
2018-08-12T08:11:47.496Z,0.90
2018-08-12T08:12:47.503Z,0.90
2018-08-12T08:13:47.511Z,0.90
2018-08-12T08:14:47.513Z,1.10
2018-08-12T08:15:47.521Z,0.90
2018-08-12T08:16:47.526Z,0.90
2018-08-12T08:17:47.533Z,0.80
2018-08-12T08:18:47.539Z,0.90
2018-08-12T08:19:47.551Z,0.90
2018-08-12T08:20:47.556Z,0.90
2018-08-12T08:21:47.564Z,0.80
2018-08-12T08:22:47.575Z,0.90
2018-08-12T08:23:47.581Z,0.80
2018-08-12T08:24:47.591Z,0.70
2018-08-12T08:25:47.628Z,0.70
2018-08-12T08:26:47.609Z,0.70
2018-08-12T08:27:47.619Z,0.70
2018-08-12T08:28:47.630Z,0.90
2018-08-12T08:29:47.643Z,0.70
2018-08-12T08:30:47.654Z,0.90
2018-08-12T08:31:47.838Z,1.00
2018-08-12T08:32:47.678Z,0.70
2018-08-12T08:33:47.691Z,0.80
2018-08-12T08:34:47.698Z,0.70
2018-08-12T08:35:47.712Z,0.60
2018-08-12T08:36:47.724Z,0.70
2018-08-12T08:37:47.735Z,0.70
2018-08-12T08:38:47.755Z,0.70
2018-08-12T08:39:47.762Z,0.60
2018-08-12T08:40:47.775Z,0.60
2018-08-12T08:41:47.787Z,0.60
2018-08-12T08:42:47.801Z,0.60
2018-08-12T08:43:47.815Z,0.80
2018-08-12T08:44:47.829Z,0.70
2018-08-12T08:45:47.843Z,0.80
2018-08-12T08:46:47.855Z,0.60
2018-08-12T08:47:47.869Z,0.80
2018-08-12T08:48:47.884Z,0.70
2018-08-12T08:49:47.934Z,0.60
2018-08-12T08:50:47.935Z,0.70
2018-08-12T08:51:47.926Z,0.80
2018-08-12T08:52:47.940Z,0.60
2018-08-12T08:53:47.955Z,0.60
2018-08-12T08:54:47.968Z,0.60
2018-08-12T08:55:48.085Z,0.60
2018-08-12T08:56:47.998Z,0.70
2018-08-12T08:57:48.015Z,0.60
2018-08-12T08:58:48.027Z,0.80
2018-08-12T08:59:48.042Z,0.70
2018-08-12T09:00:48.058Z,0.70
2018-08-12T09:01:48.073Z,0.70
2018-08-12T09:02:48.087Z,0.70
2018-08-12T09:03:48.104Z,0.70
2018-08-12T09:04:48.117Z,0.70
2018-08-12T09:05:48.132Z,0.60
2018-08-12T09:06:48.146Z,0.60
2018-08-12T09:07:48.163Z,0.60
2018-08-12T09:08:48.274Z,0.70
2018-08-12T09:09:48.192Z,0.70
2018-08-12T09:10:48.208Z,0.50
2018-08-12T09:11:48.223Z,0.80
2018-08-12T09:12:48.238Z,0.60
2018-08-12T09:13:48.252Z,0.70
2018-08-12T09:14:48.269Z,0.50
2018-08-12T09:15:48.284Z,0.70
2018-08-12T09:16:48.297Z,0.60
2018-08-12T09:17:48.312Z,0.60
2018-08-12T09:18:48.332Z,0.60
2018-08-12T09:19:48.344Z,0.70
2018-08-12T09:20:48.358Z,0.80
2018-08-12T09:21:48.373Z,0.80
2018-08-12T09:22:48.388Z,0.70
2018-08-12T09:23:48.403Z,0.70
2018-08-12T09:24:48.417Z,0.60
2018-08-12T09:25:48.432Z,0.90
2018-08-12T09:26:48.449Z,0.90
2018-08-12T09:27:48.464Z,1.00
2018-08-12T09:28:48.476Z,0.70
2018-08-12T09:29:48.495Z,0.60
2018-08-12T09:30:48.506Z,0.60
2018-08-12T09:31:48.524Z,0.60
2018-08-12T09:32:48.536Z,0.50
2018-08-12T09:33:48.551Z,0.70
2018-08-12T09:34:48.565Z,0.60
2018-08-12T09:35:48.580Z,0.70
2018-08-12T09:36:48.595Z,0.60
2018-08-12T09:37:48.611Z,0.60
2018-08-12T09:38:48.624Z,0.70
2018-08-12T09:39:48.641Z,0.60
2018-08-12T09:40:48.655Z,0.70
2018-08-12T09:41:48.670Z,0.60
2018-08-12T09:42:48.688Z,0.70
2018-08-12T09:43:48.700Z,0.70
2018-08-12T09:44:48.715Z,0.60
2018-08-12T09:45:48.728Z,0.60
2018-08-12T09:46:48.744Z,0.80
2018-08-12T09:47:48.759Z,0.60
2018-08-12T09:48:48.775Z,0.60
2018-08-12T09:49:48.789Z,0.70
2018-08-12T09:50:48.803Z,0.60
2018-08-12T09:51:48.857Z,0.60
2018-08-12T09:52:48.842Z,0.80
2018-08-12T09:53:48.849Z,0.70
2018-08-12T09:54:48.863Z,0.60
2018-08-12T09:55:48.882Z,0.60
2018-08-12T09:56:48.897Z,0.60
2018-08-12T09:57:48.909Z,0.60
2018-08-12T09:58:48.924Z,0.60
2018-08-12T09:59:48.941Z,0.70
2018-08-12T10:00:48.957Z,0.50
2018-08-12T10:01:48.968Z,0.60
2018-08-12T10:02:48.984Z,0.70
2018-08-12T10:03:48.998Z,0.80
2018-08-12T10:04:49.013Z,0.80
2018-08-12T10:05:49.027Z,0.80
2018-08-12T10:06:49.042Z,0.60
2018-08-12T10:07:49.057Z,0.50
2018-08-12T10:08:49.074Z,0.80
2018-08-12T10:09:49.090Z,0.40
2018-08-12T10:10:49.102Z,0.80
2018-08-12T10:11:49.117Z,0.70
2018-08-12T10:12:49.131Z,0.70
2018-08-12T10:13:49.147Z,0.60
2018-08-12T10:14:49.159Z,0.60
2018-08-12T10:15:49.174Z,0.70
2018-08-12T10:16:49.189Z,0.70
2018-08-12T10:17:49.205Z,0.60
2018-08-12T10:18:49.218Z,0.60
2018-08-12T10:19:49.233Z,0.70
2018-08-12T10:20:49.248Z,0.50
2018-08-12T10:21:49.263Z,0.60
2018-08-12T10:22:49.279Z,0.60
2018-08-12T10:23:49.294Z,0.60
2018-08-12T10:24:49.307Z,0.70
2018-08-12T10:25:49.321Z,0.80
2018-08-12T10:26:49.338Z,0.90
2018-08-12T10:27:49.352Z,0.70
2018-08-12T10:28:49.367Z,0.60
2018-08-12T10:29:49.385Z,0.80
2018-08-12T10:30:49.397Z,0.60
2018-08-12T10:31:49.410Z,0.60
2018-08-12T10:32:49.426Z,0.70
2018-08-12T10:33:49.439Z,0.70
2018-08-12T10:34:49.458Z,0.70
2018-08-12T10:35:49.471Z,0.70
2018-08-12T10:36:49.487Z,0.80
2018-08-12T10:37:49.499Z,0.70
2018-08-12T10:38:49.513Z,0.70
2018-08-12T10:39:49.532Z,0.70
2018-08-12T10:40:49.545Z,0.70
2018-08-12T10:41:49.560Z,0.70
2018-08-12T10:42:49.572Z,0.80
2018-08-12T10:43:49.595Z,0.70
2018-08-12T10:44:49.601Z,0.70
2018-08-12T10:45:49.618Z,0.70
2018-08-12T10:46:49.631Z,0.90
2018-08-12T10:47:49.644Z,0.70
2018-08-12T10:48:49.659Z,0.80
2018-08-12T10:49:49.674Z,0.90
2018-08-12T10:50:49.743Z,0.70
2018-08-12T10:51:49.703Z,1.10
2018-08-12T10:52:49.715Z,1.00
2018-08-12T10:53:49.731Z,0.80
2018-08-12T10:54:49.745Z,1.80
2018-08-12T10:55:49.761Z,1.20
2018-08-12T10:56:49.772Z,0.80
2018-08-12T10:57:49.786Z,0.80
2018-08-12T10:58:49.801Z,0.70
2018-08-12T10:59:49.815Z,0.60
2018-08-12T11:00:49.832Z,0.80
2018-08-12T11:01:49.844Z,0.70
2018-08-12T11:02:49.856Z,0.70
2018-08-12T11:03:49.871Z,0.60
2018-08-12T11:04:49.886Z,0.80
2018-08-12T11:05:49.898Z,0.80
2018-08-12T11:06:49.912Z,0.80
2018-08-12T11:07:49.929Z,0.70
2018-08-12T11:08:49.941Z,0.70
2018-08-12T11:09:49.953Z,0.60
2018-08-12T11:10:49.966Z,0.70
2018-08-12T11:11:49.981Z,0.70
2018-08-12T11:12:50.011Z,0.80
2018-08-12T11:13:50.007Z,0.70
2018-08-12T11:14:50.019Z,0.70
2018-08-12T11:15:50.033Z,0.90
2018-08-12T11:16:50.046Z,0.60
2018-08-12T11:17:50.058Z,0.70
2018-08-12T11:18:50.073Z,0.70
2018-08-12T11:19:50.085Z,0.60
2018-08-12T11:20:50.103Z,0.70
2018-08-12T11:21:50.108Z,0.60
2018-08-12T11:22:50.121Z,0.90
2018-08-12T11:23:50.135Z,0.90
2018-08-12T11:24:50.147Z,0.60
2018-08-12T11:25:50.158Z,1.60
2018-08-12T11:26:50.171Z,1.00
2018-08-12T11:29:28.633Z,0.80
2018-08-12T11:30:28.644Z,0.70
2018-08-12T11:31:28.654Z,0.80
2018-08-12T11:32:28.666Z,0.80
2018-08-12T11:33:28.676Z,0.80
2018-08-12T11:34:28.689Z,0.80
2018-08-12T11:35:28.700Z,0.70
2018-08-12T11:36:28.711Z,0.80
2018-08-12T11:37:28.724Z,0.80
2018-08-12T11:38:28.735Z,0.60
2018-08-12T11:39:28.743Z,0.60
2018-08-12T11:40:28.755Z,0.70
2018-08-12T11:41:28.766Z,0.70
2018-08-12T11:42:28.776Z,0.80
2018-08-12T11:43:28.787Z,0.80
2018-08-12T11:44:28.799Z,0.70
2018-08-12T11:45:28.808Z,0.70
2018-08-12T11:47:55.893Z,0.60
2018-08-12T11:48:55.500Z,0.70
2018-08-12T11:49:55.505Z,1.00
2018-08-12T11:50:55.515Z,0.80
2018-08-12T11:51:55.527Z,0.80
2018-08-12T11:52:55.537Z,0.90
2018-08-12T11:53:55.546Z,0.70
2018-08-12T11:54:55.557Z,0.70
2018-08-12T11:55:55.569Z,0.60
2018-08-12T11:56:55.625Z,0.70
2018-08-12T11:57:55.588Z,0.80
2018-08-12T11:58:55.601Z,0.70
2018-08-12T11:59:55.609Z,0.70
2018-08-12T12:00:55.619Z,0.70
2018-08-12T12:01:55.630Z,0.60
2018-08-12T12:02:55.638Z,0.60
2018-08-12T12:03:55.651Z,0.60
2018-08-12T12:04:55.659Z,0.70
2018-08-12T12:05:55.668Z,1.00
2018-08-12T12:06:55.684Z,0.80
2018-08-12T12:07:55.691Z,0.80
2018-08-12T12:08:55.698Z,0.60
2018-08-12T12:09:55.707Z,0.60
2018-08-12T12:10:55.716Z,0.60
2018-08-12T12:11:55.726Z,0.70
2018-08-12T12:12:55.736Z,0.70
2018-08-12T12:13:55.747Z,0.80
2018-08-12T12:14:55.764Z,0.60
2018-08-12T12:15:55.766Z,0.70
2018-08-12T12:16:55.778Z,0.50
2018-08-12T12:17:55.784Z,1.00
2018-08-12T12:18:55.794Z,0.60
2018-08-12T12:19:55.804Z,0.80
2018-08-12T12:20:55.814Z,0.70
2018-08-12T12:21:55.821Z,0.80
2018-08-12T12:22:55.831Z,0.70
2018-08-12T12:23:55.840Z,0.80
2018-08-12T12:24:55.850Z,0.70
2018-08-12T12:25:55.869Z,0.60
2018-08-12T12:26:55.868Z,0.60
2018-08-12T12:27:55.877Z,0.60
2018-08-12T12:28:55.889Z,0.50
2018-08-12T12:29:55.895Z,0.50
2018-08-12T12:30:55.906Z,0.60
2018-08-12T12:31:55.917Z,0.60
2018-08-12T12:32:55.924Z,0.60
2018-08-12T12:33:55.933Z,0.60
2018-08-12T12:34:55.943Z,0.60
2018-08-12T12:35:55.954Z,0.70
2018-08-12T12:36:55.961Z,0.60
2018-08-12T12:37:55.970Z,0.70
2018-08-12T12:38:55.977Z,0.60
2018-08-12T12:39:55.987Z,0.70
2018-08-12T12:40:55.997Z,0.50
2018-08-12T12:41:56.008Z,0.60
2018-08-12T12:42:56.060Z,0.70
2018-08-12T12:43:56.023Z,0.50
2018-08-12T12:44:56.032Z,0.60
2018-08-12T12:45:56.041Z,0.60
2018-08-12T12:46:56.051Z,0.60
2018-08-12T12:47:56.059Z,0.60
2018-08-12T12:48:56.068Z,0.60
2018-08-12T12:49:56.075Z,0.60
2018-08-12T12:50:56.086Z,0.60
2018-08-12T12:51:56.094Z,0.70
2018-08-12T12:52:56.104Z,0.70
2018-08-12T12:53:56.111Z,0.70
2018-08-12T12:54:56.120Z,0.70
2018-08-12T12:55:56.129Z,0.60
2018-08-12T12:56:56.139Z,0.80
2018-08-12T12:57:56.153Z,0.70
2018-08-12T12:58:56.156Z,0.70
2018-08-12T12:59:56.165Z,0.70
2018-08-12T13:00:56.175Z,0.70
2018-08-12T13:01:56.183Z,0.60
2018-08-12T13:02:56.190Z,0.60
2018-08-12T13:03:56.200Z,0.60
2018-08-12T13:04:56.209Z,0.60
2018-08-12T13:05:56.218Z,0.70
2018-08-12T13:06:56.225Z,0.60
2018-08-12T13:07:56.236Z,0.60
2018-08-12T13:08:56.245Z,0.60
2018-08-12T13:09:56.253Z,0.60
2018-08-12T13:10:56.263Z,0.70
2018-08-12T13:11:56.271Z,0.60
2018-08-12T13:12:56.280Z,0.70
2018-08-12T13:13:56.290Z,0.60
2018-08-12T13:14:56.296Z,0.70
2018-08-12T13:15:56.306Z,0.60
2018-08-12T13:16:56.318Z,0.80
2018-08-12T13:17:56.323Z,0.70
2018-08-12T13:18:56.348Z,0.60
2018-08-12T13:19:56.343Z,0.60
2018-08-12T13:20:56.351Z,0.50
2018-08-12T13:21:56.359Z,0.60